KPWM/PWM METAR and TAF weather

Enter ICAO airport designator
Station Type Date Time Source
KPWM METAR 2019/12/12 16:51 UTC NOAA

KPWM 121651Z VRB06KT 10SM FEW045 FEW250 M01/M14 A3063 RMK AO2 SLP375 T10111139


Station Type Date Time Source
KPWM Decoded METAR 2019/12/12 16:51 UTC NOAA

PORTLAND INTERNATIONAL JETPORT, ME, United States (KPWM) 43-39N 70-18W 15M
Dec 12, 2019 - 11:51 AM EST / 2019.12.12 1651 UTC
Wind: Variable at 7 MPH (6 KT):0
Visibility: 10 mile(s):0
Sky conditions: mostly clear
Temperature: 30.0 F (-1.1 C)
Windchill: 23 F (-5 C):1
Dew Point: 7.0 F (-13.9 C)
Relative Humidity: 37%
Pressure (altimeter): 30.63 in. Hg (1037 hPa)
ob: KPWM 121651Z VRB06KT 10SM FEW045 FEW250 M01/M14 A3063 RMK AO2 SLP375 T10111139
cycle: 17

Station Type Date Time Source
KPWM TAF 2019/12/12 12:28 UTC NOAA

TAF KPWM 121126Z 1212/1312 29008KT P6SM SKC
FM130000 VRB03KT P6SM OVC250

Example: see airport list